Hovedside
METAR-TAF:

METAR-TAF

Lufthavner :

Teheran, Iran

breddegrad: 35-41N, lengdegrad: 051-21E, høyde over havet: 1204 m

Gjeldene værobservasjon

Denne rapporten ble laget for 32 minutter siden, klokken 18:00 UTC
Flau vind
Temperatur 16°C
Luftfuktighet 42%
Trykk 1019 hPa
Sikt 10 km eller mer
Få skyer i en høyde av 4000 ft

METAR: OIII 241800Z 00000KT 9999 FEW040 16/03 Q1019 A3010 NOSIG

Tid: 23:02 (18:32 UTC)

Varsel

Denne rapporten ble laget for 52 minutter siden, klokken 17:40 UTC
Varsel gyldig fra 24. klokken 18 UTC til 25. klokken 24 UTC
Vind 8 kt fra Nordvest
Sikt: 7000 m
Blir
fra 25. klokken 05 UTC til 25. klokken 06 UTC
Vind 10 kt fra Sør-sørøst
Midlertidig
fra 25. klokken 12 UTC til 25. klokken 15 UTC
Få skyer i en høyde av 3000 ft, Bygeskyer.
Spredte skyer i en høyde av 3500 ft
Blir
fra 25. klokken 16 UTC til 25. klokken 18 UTC
Vind 8 kt fra Nordvest

TAF: OIII 241740Z 2418/2524 32004MPS 7000 NSC BECMG 2505/2506 15005MPS TEMPO 2512/2515 FEW030CB SCT035 BECMG 2516/2518 32004MPS

Værobservasjoner og værvarsel for over 4000 flyplasser (METAR- og TAF-rapporter).

Tilgjengelige stasjoner er representert av de røde og gule prikkene på kartet.

Hold musepekeren over prikken for å se navnet på stasjonen.

Klikk så for å se værobservasjoner og -varsler.

For å forandre kartet kan du klikke på den grønne knappen med svart kryss for å zoome inn, på den grønne knappen med strek for å zoome ut, eller på de grønne pilene for å se tilstøtende kart.


METAR-TAF: